KMYV/MYV METAR and TAF weather

Enter ICAO airport designator
Station Type Date Time Source
KMYV METAR 2020/01/29 18:53 UTC NOAA

KMYV 291853Z AUTO 30014KT 10SM CLR 13/07 A3026 RMK AO2 SLP249 T01330072


Station Type Date Time Source
KMYV Decoded METAR 2020/01/29 18:53 UTC NOAA

MARYSVILLE YUBA COUNTY, CA, United States (KMYV) 39-06N 121-34W 21M
Jan 29, 2020 - 01:53 PM EST / 2020.01.29 1853 UTC
Wind: from the WNW (300 degrees) at 16 MPH (14 KT):0
Visibility: 10 mile(s):0
Sky conditions: clear
Temperature: 55.9 F (13.3 C)
Dew Point: 45.0 F (7.2 C)
Relative Humidity: 66%
Pressure (altimeter): 30.26 in. Hg (1024 hPa)
ob: KMYV 291853Z AUTO 30014KT 10SM CLR 13/07 A3026 RMK AO2 SLP249 T01330072
cycle: 19

Station Type Date Time Source
KMYV TAF UTC NOAA

Error!

Example: see airport list